createdAt,value
2017-08-19T00:01:37.787Z,11.47
2017-08-19T00:04:05.260Z,13.43
2017-08-19T00:06:32.739Z,11.60
2017-08-19T00:09:00.221Z,12.57
2017-08-19T00:11:27.693Z,13.10
2017-08-19T00:13:55.164Z,14.07
2017-08-19T00:16:22.628Z,14.30
2017-08-19T00:18:50.106Z,12.93
2017-08-19T00:21:17.909Z,15.03
2017-08-19T00:23:45.378Z,15.47
2017-08-19T00:26:12.853Z,15.30
2017-08-19T00:28:40.332Z,15.77
2017-08-19T00:31:07.808Z,14.03
2017-08-19T00:33:35.291Z,15.93
2017-08-19T00:36:03.745Z,16.33
2017-08-19T00:38:31.224Z,14.30
2017-08-19T00:40:58.688Z,14.87
2017-08-19T00:43:26.175Z,14.30
2017-08-19T00:45:53.647Z,13.80
2017-08-19T00:48:21.140Z,14.67
2017-08-19T00:50:48.602Z,13.30
2017-08-19T00:53:16.063Z,15.13
2017-08-19T00:55:43.545Z,20.93
2017-08-19T00:58:11.016Z,15.40
2017-08-19T01:00:38.491Z,11.73
2017-08-19T01:03:05.972Z,11.30
2017-08-19T01:05:33.451Z,15.10
2017-08-19T01:08:00.940Z,10.57
2017-08-19T01:10:28.411Z,9.87
2017-08-19T01:12:55.871Z,8.03
2017-08-19T01:15:23.349Z,7.47
2017-08-19T01:17:50.808Z,7.13
2017-08-19T01:20:18.286Z,10.80
2017-08-19T01:22:45.762Z,6.67
2017-08-19T01:25:25.011Z,8.20
2017-08-19T01:27:52.472Z,7.50
2017-08-19T01:30:19.944Z,5.70
2017-08-19T01:32:47.404Z,7.63
2017-08-19T01:35:14.892Z,10.23
2017-08-19T01:37:42.363Z,14.37
2017-08-19T01:40:09.844Z,7.33
2017-08-19T01:42:37.314Z,8.30
2017-08-19T01:45:04.776Z,11.03
2017-08-19T01:47:32.251Z,8.87
2017-08-19T01:49:59.715Z,9.00
2017-08-19T01:52:27.191Z,13.63
2017-08-19T01:54:54.653Z,9.47
2017-08-19T01:57:22.127Z,12.90
2017-08-19T01:59:49.607Z,13.13
2017-08-19T02:02:17.076Z,15.50
2017-08-19T02:04:44.539Z,13.50
2017-08-19T02:07:12.017Z,14.10
2017-08-19T02:09:39.478Z,12.20
2017-08-19T02:12:06.947Z,17.20
2017-08-19T02:14:34.416Z,10.97
2017-08-19T02:17:01.891Z,11.83
2017-08-19T02:19:29.352Z,9.03
2017-08-19T02:21:56.819Z,9.80
2017-08-19T02:24:24.288Z,12.87
2017-08-19T02:26:51.760Z,8.97
2017-08-19T02:29:19.233Z,11.07
2017-08-19T02:31:46.698Z,12.00
2017-08-19T02:34:14.168Z,9.73
2017-08-19T02:36:41.633Z,11.70
2017-08-19T02:39:09.102Z,12.50
2017-08-19T02:41:36.567Z,10.90
2017-08-19T02:44:04.039Z,16.43
2017-08-19T02:46:31.529Z,13.37
2017-08-19T02:49:12.433Z,13.10
2017-08-19T02:51:39.900Z,8.73
2017-08-19T02:54:07.385Z,10.37
2017-08-19T02:56:35.544Z,9.90
2017-08-19T02:59:03.023Z,10.37
2017-08-19T03:01:30.491Z,10.97
2017-08-19T03:03:58.023Z,8.07
2017-08-19T03:06:25.483Z,12.97
2017-08-19T03:08:52.964Z,16.63
2017-08-19T03:11:20.429Z,11.93
2017-08-19T03:13:47.907Z,13.13
2017-08-19T03:16:15.380Z,9.67
2017-08-19T03:18:42.855Z,10.07
2017-08-19T03:21:10.316Z,8.80
2017-08-19T03:23:37.798Z,10.17
2017-08-19T03:26:05.261Z,10.53
2017-08-19T03:28:32.741Z,11.77
2017-08-19T03:31:00.200Z,9.53
2017-08-19T03:33:27.686Z,8.80
2017-08-19T03:35:55.162Z,11.50
2017-08-19T03:38:22.630Z,13.93
2017-08-19T03:40:50.104Z,10.33
2017-08-19T03:43:17.569Z,11.23
2017-08-19T03:45:45.055Z,15.00
2017-08-19T03:48:12.515Z,9.93
2017-08-19T03:50:39.992Z,11.53
2017-08-19T03:53:07.459Z,13.03
2017-08-19T03:55:34.926Z,11.80
2017-08-19T03:58:02.391Z,5.93
2017-08-19T04:00:29.872Z,11.63
2017-08-19T04:02:57.328Z,12.07
2017-08-19T04:05:24.802Z,6.63
2017-08-19T04:07:52.267Z,13.97
2017-08-19T04:10:19.741Z,8.70
2017-08-19T04:12:47.216Z,13.30
2017-08-19T04:15:14.712Z,12.93
2017-08-19T04:17:42.170Z,10.27
2017-08-19T04:20:09.643Z,13.87
2017-08-19T04:22:37.099Z,7.07
2017-08-19T04:25:04.582Z,9.77
2017-08-19T04:27:32.043Z,8.50
2017-08-19T04:29:59.503Z,11.93
2017-08-19T04:32:26.980Z,8.73
2017-08-19T04:34:54.445Z,9.90
2017-08-19T04:37:21.920Z,9.53
2017-08-19T04:39:49.384Z,10.00
2017-08-19T04:42:16.847Z,8.53
2017-08-19T04:44:44.315Z,10.10
2017-08-19T04:47:11.791Z,11.37
2017-08-19T04:49:39.248Z,10.07
2017-08-19T04:52:06.736Z,12.07
2017-08-19T04:54:34.214Z,9.47
2017-08-19T04:57:01.690Z,10.17
2017-08-19T04:59:29.156Z,11.27
2017-08-19T05:01:56.628Z,16.03
2017-08-19T05:04:24.090Z,13.27
2017-08-19T05:06:51.559Z,10.47
2017-08-19T05:09:19.044Z,11.40
2017-08-19T05:11:46.528Z,12.43
2017-08-19T05:14:13.995Z,10.97
2017-08-19T05:16:41.459Z,14.10
2017-08-19T05:19:08.938Z,11.97
2017-08-19T05:21:36.402Z,14.50
2017-08-19T05:24:03.870Z,11.83
2017-08-19T05:26:31.335Z,10.47
2017-08-19T05:28:58.814Z,10.67
2017-08-19T05:31:26.282Z,11.60
2017-08-19T05:33:53.752Z,6.73
2017-08-19T05:36:21.218Z,13.83
2017-08-19T05:38:48.687Z,10.70
2017-08-19T05:41:16.153Z,7.87
2017-08-19T05:43:43.622Z,11.80
2017-08-19T05:46:11.085Z,8.03
2017-08-19T05:48:38.549Z,8.30
2017-08-19T05:51:06.012Z,10.40
2017-08-19T05:53:33.489Z,6.23
2017-08-19T05:56:00.953Z,6.73
2017-08-19T05:58:28.419Z,8.50
2017-08-19T06:00:55.883Z,9.27
2017-08-19T06:03:23.368Z,8.53
2017-08-19T06:05:50.828Z,10.97
2017-08-19T06:08:18.296Z,13.90
2017-08-19T06:10:45.763Z,7.37
2017-08-19T06:13:13.223Z,8.97
2017-08-19T06:15:40.696Z,8.40
2017-08-19T06:18:08.159Z,10.23
2017-08-19T06:20:35.636Z,10.80
2017-08-19T06:23:03.100Z,9.67
2017-08-19T06:25:30.577Z,11.53
2017-08-19T06:27:58.044Z,6.17
2017-08-19T06:30:25.523Z,11.50
2017-08-19T06:32:52.984Z,8.63
2017-08-19T06:35:20.448Z,5.30
2017-08-19T06:37:47.923Z,5.07
2017-08-19T06:40:15.397Z,7.63
2017-08-19T06:42:42.862Z,14.80
2017-08-19T06:45:10.348Z,8.93
2017-08-19T06:47:37.822Z,6.83
2017-08-19T06:50:05.293Z,4.00
2017-08-19T06:52:32.743Z,5.93
2017-08-19T06:55:00.219Z,5.90
2017-08-19T06:57:27.676Z,8.00
2017-08-19T06:59:55.147Z,8.20
2017-08-19T07:02:22.612Z,9.80
2017-08-19T07:04:50.096Z,5.27
2017-08-19T07:07:17.548Z,5.97
2017-08-19T07:09:45.010Z,10.57
2017-08-19T07:12:12.488Z,8.20
2017-08-19T07:14:39.953Z,5.90
2017-08-19T07:17:07.426Z,5.70
2017-08-19T07:19:34.894Z,10.80
2017-08-19T07:22:02.360Z,4.97
2017-08-19T07:24:29.820Z,7.07
2017-08-19T07:26:57.318Z,8.23
2017-08-19T07:29:24.788Z,10.67
2017-08-19T07:31:52.265Z,6.63
2017-08-19T07:34:19.720Z,4.23
2017-08-19T07:36:47.194Z,5.83
2017-08-19T07:39:14.656Z,10.53
2017-08-19T07:41:42.131Z,8.63
2017-08-19T07:44:09.594Z,8.27
2017-08-19T07:46:37.077Z,7.07
2017-08-19T07:49:04.558Z,4.90
2017-08-19T07:51:32.032Z,6.57
2017-08-19T07:53:59.499Z,7.20
2017-08-19T07:56:26.959Z,9.73
2017-08-19T07:58:54.431Z,7.90
2017-08-19T08:01:21.894Z,6.10
2017-08-19T08:03:49.363Z,4.83
2017-08-19T08:06:16.835Z,9.60
2017-08-19T08:08:44.515Z,5.27
2017-08-19T08:11:11.972Z,5.17
2017-08-19T08:13:39.435Z,6.47
2017-08-19T08:16:06.901Z,4.70
2017-08-19T08:18:34.382Z,5.87
2017-08-19T08:21:01.847Z,4.47
2017-08-19T08:23:29.312Z,3.43
2017-08-19T08:25:56.781Z,5.60
2017-08-19T08:28:24.251Z,5.83
2017-08-19T08:30:51.710Z,4.40
2017-08-19T08:33:19.190Z,4.40
2017-08-19T08:35:46.642Z,7.27
2017-08-19T08:38:14.134Z,3.33
2017-08-19T08:40:41.589Z,5.67
2017-08-19T08:43:09.049Z,5.37
2017-08-19T08:45:36.531Z,13.37
2017-08-19T08:48:03.985Z,3.80
2017-08-19T08:50:31.464Z,7.47
2017-08-19T08:52:58.928Z,6.10
2017-08-19T08:55:26.396Z,4.27
2017-08-19T08:57:53.850Z,13.87
2017-08-19T09:00:21.337Z,4.30
2017-08-19T09:02:48.797Z,2.83
2017-08-19T09:05:16.271Z,3.60
2017-08-19T09:07:43.739Z,7.90
2017-08-19T09:10:11.213Z,11.23
2017-08-19T09:12:38.685Z,6.53
2017-08-19T09:15:06.148Z,8.23
2017-08-19T09:17:33.603Z,3.50
2017-08-19T09:20:01.070Z,4.13
2017-08-19T09:22:28.539Z,4.50
2017-08-19T09:24:56.015Z,2.43
2017-08-19T09:27:23.588Z,4.83
2017-08-19T09:29:51.085Z,3.17
2017-08-19T09:32:18.568Z,3.23
2017-08-19T09:34:46.040Z,4.60
2017-08-19T09:37:13.536Z,3.60
2017-08-19T09:39:40.995Z,2.10
2017-08-19T09:42:08.472Z,6.93
2017-08-19T09:44:35.953Z,6.00
2017-08-19T09:47:03.424Z,4.37
2017-08-19T09:49:30.883Z,5.03
2017-08-19T09:51:58.352Z,3.80
2017-08-19T09:54:25.806Z,4.73
2017-08-19T09:56:53.271Z,2.70
2017-08-19T09:59:20.737Z,3.67
2017-08-19T10:01:48.214Z,8.13
2017-08-19T10:04:15.674Z,2.90
2017-08-19T10:06:43.139Z,3.00
2017-08-19T10:09:22.331Z,5.77
2017-08-19T10:11:49.812Z,5.33
2017-08-19T10:14:17.267Z,5.03
2017-08-19T10:16:44.732Z,4.70
2017-08-19T10:19:12.193Z,5.03
2017-08-19T10:21:39.658Z,3.33
2017-08-19T10:24:07.119Z,4.23
2017-08-19T10:26:34.583Z,3.37
2017-08-19T10:29:02.069Z,6.90
2017-08-19T10:31:29.555Z,4.10
2017-08-19T10:33:57.039Z,4.13
2017-08-19T10:36:24.495Z,3.60
2017-08-19T10:38:51.967Z,5.60
2017-08-19T10:41:19.431Z,5.00
2017-08-19T10:43:46.901Z,7.70
2017-08-19T10:46:14.363Z,4.17
2017-08-19T10:48:41.837Z,3.90
2017-08-19T10:51:09.295Z,4.03
2017-08-19T10:53:36.764Z,3.00
2017-08-19T10:56:04.228Z,4.50
2017-08-19T10:58:31.707Z,4.60
2017-08-19T11:00:59.155Z,6.20
2017-08-19T11:03:26.621Z,3.90
2017-08-19T11:05:54.082Z,4.20
2017-08-19T11:08:21.590Z,2.67
2017-08-19T11:10:49.063Z,4.73
2017-08-19T11:13:16.535Z,5.20
2017-08-19T11:15:43.997Z,8.23
2017-08-19T11:18:11.460Z,5.77
2017-08-19T11:20:38.925Z,6.30
2017-08-19T11:23:06.392Z,5.60
2017-08-19T11:25:33.910Z,4.33
2017-08-19T11:28:01.383Z,10.20
2017-08-19T11:30:28.866Z,5.33
2017-08-19T11:32:56.335Z,2.50
2017-08-19T11:35:23.815Z,13.23
2017-08-19T11:37:51.268Z,4.70
2017-08-19T11:40:18.770Z,4.50
2017-08-19T11:42:46.211Z,5.33
2017-08-19T11:45:13.671Z,4.90
2017-08-19T11:47:41.128Z,4.33
2017-08-19T11:50:08.610Z,6.93
2017-08-19T11:52:36.078Z,1.60
2017-08-19T11:55:03.551Z,6.10
2017-08-19T12:00:23.897Z,6.97
2017-08-19T12:02:51.352Z,8.37
2017-08-19T12:05:18.823Z,7.70
2017-08-19T12:07:46.282Z,5.37
2017-08-19T12:10:13.773Z,3.20
2017-08-19T12:12:41.236Z,3.73
2017-08-19T12:15:08.697Z,8.03
2017-08-19T12:17:36.160Z,4.27
2017-08-19T12:20:03.619Z,5.40
2017-08-19T12:22:31.102Z,6.07
2017-08-19T12:24:58.555Z,3.50
2017-08-19T12:27:26.022Z,6.00
2017-08-19T12:29:53.490Z,6.77
2017-08-19T12:32:20.968Z,7.90
2017-08-19T12:34:48.436Z,4.30
2017-08-19T12:37:15.900Z,7.23
2017-08-19T12:39:43.359Z,5.63
2017-08-19T12:42:10.828Z,13.33
2017-08-19T12:44:38.306Z,3.17
2017-08-19T12:47:05.777Z,6.00
2017-08-19T12:49:33.240Z,5.00
2017-08-19T12:52:00.711Z,12.80
2017-08-19T12:54:28.180Z,6.57
2017-08-19T12:56:55.656Z,5.03
2017-08-19T12:59:23.123Z,8.10
2017-08-19T13:01:50.616Z,7.33
2017-08-19T13:04:18.082Z,7.50
2017-08-19T13:06:45.542Z,7.90
2017-08-19T13:09:13.011Z,5.90
2017-08-19T13:11:40.473Z,8.17
2017-08-19T13:14:07.946Z,5.80
2017-08-19T13:16:35.407Z,3.77
2017-08-19T13:19:02.875Z,5.70
2017-08-19T13:21:30.339Z,3.73
2017-08-19T13:23:57.807Z,5.17
2017-08-19T13:26:25.267Z,2.40
2017-08-19T13:28:52.744Z,4.37
2017-08-19T13:31:20.211Z,7.43
2017-08-19T13:33:47.676Z,6.20
2017-08-19T13:36:15.136Z,5.43
2017-08-19T13:38:42.619Z,6.50
2017-08-19T13:41:10.091Z,5.90
2017-08-19T13:43:37.566Z,2.60
2017-08-19T13:46:05.032Z,6.63
2017-08-19T13:48:32.508Z,7.87
2017-08-19T13:50:59.981Z,7.43
2017-08-19T13:53:27.447Z,4.73
2017-08-19T13:55:54.912Z,6.13
2017-08-19T13:58:22.387Z,3.80
2017-08-19T14:00:49.875Z,8.13
2017-08-19T14:03:17.343Z,5.97
2017-08-19T14:05:44.799Z,5.40
2017-08-19T14:08:12.279Z,6.07
2017-08-19T14:10:39.735Z,4.40
2017-08-19T14:13:07.196Z,4.67
2017-08-19T14:15:34.660Z,7.30
2017-08-19T14:18:02.157Z,2.60
2017-08-19T14:20:29.622Z,4.40
2017-08-19T14:22:57.080Z,5.63
2017-08-19T14:25:24.552Z,3.67
2017-08-19T14:27:52.016Z,8.63
2017-08-19T14:30:19.482Z,5.83
2017-08-19T14:32:46.952Z,6.43
2017-08-19T14:35:14.428Z,4.27
2017-08-19T14:37:41.895Z,8.93
2017-08-19T14:40:09.363Z,9.70
2017-08-19T14:42:36.822Z,5.30
2017-08-19T14:45:04.292Z,6.70
2017-08-19T14:47:31.754Z,5.90
2017-08-19T14:49:59.233Z,3.20
2017-08-19T14:52:26.695Z,3.93
2017-08-19T14:54:54.164Z,4.90
2017-08-19T14:57:21.631Z,5.10
2017-08-19T14:59:49.102Z,6.20
2017-08-19T15:02:16.576Z,3.50
2017-08-19T15:04:44.050Z,4.20
2017-08-19T15:07:11.510Z,4.13
2017-08-19T15:09:38.971Z,5.93
2017-08-19T15:12:06.444Z,7.70
2017-08-19T15:14:33.907Z,6.10
2017-08-19T15:17:01.380Z,7.10
2017-08-19T15:19:28.849Z,3.90
2017-08-19T15:21:56.315Z,4.47
2017-08-19T15:24:23.795Z,7.13
2017-08-19T15:26:51.258Z,6.43
2017-08-19T15:29:18.720Z,3.50
2017-08-19T15:31:46.204Z,5.33
2017-08-19T15:34:13.676Z,9.60
2017-08-19T15:36:41.152Z,3.93
2017-08-19T15:39:08.612Z,4.07
2017-08-19T15:41:36.083Z,4.50
2017-08-19T15:44:03.551Z,4.77
2017-08-19T15:46:31.051Z,4.53
2017-08-19T15:48:58.513Z,3.13
2017-08-19T15:51:25.975Z,3.03
2017-08-19T15:53:53.430Z,8.97
2017-08-19T15:56:20.904Z,9.03
2017-08-19T15:58:48.368Z,4.20
2017-08-19T16:01:15.835Z,4.93
2017-08-19T16:03:43.296Z,5.47
2017-08-19T16:06:10.779Z,4.20
2017-08-19T16:08:38.252Z,3.97
2017-08-19T16:11:05.715Z,6.37
2017-08-19T16:13:33.194Z,3.70
2017-08-19T16:16:00.659Z,5.40
2017-08-19T16:18:28.127Z,4.87
2017-08-19T16:20:55.584Z,3.00
2017-08-19T16:23:23.062Z,7.37
2017-08-19T16:25:50.525Z,3.67
2017-08-19T16:28:18.339Z,5.23
2017-08-19T16:30:45.800Z,3.33
2017-08-19T16:33:13.264Z,5.83
2017-08-19T16:35:40.778Z,3.93
2017-08-19T16:38:08.244Z,5.17
2017-08-19T16:40:35.720Z,5.03
2017-08-19T16:43:03.179Z,3.00
2017-08-19T16:45:30.648Z,4.60
2017-08-19T16:47:58.113Z,1.97
2017-08-19T16:50:25.576Z,5.80
2017-08-19T16:52:53.041Z,5.57
2017-08-19T16:55:20.511Z,3.70
2017-08-19T16:57:48.019Z,5.27
2017-08-19T17:00:15.488Z,4.00
2017-08-19T17:02:42.953Z,3.10
2017-08-19T17:05:10.415Z,4.30
2017-08-19T17:07:37.879Z,5.00
2017-08-19T17:10:05.360Z,5.60
2017-08-19T17:12:32.832Z,7.20
2017-08-19T17:15:00.320Z,3.63
2017-08-19T17:17:27.782Z,5.43
2017-08-19T17:19:55.247Z,8.83
2017-08-19T17:22:22.736Z,5.53
2017-08-19T17:24:50.213Z,8.60
2017-08-19T17:27:17.686Z,3.23
2017-08-19T17:29:45.144Z,4.53
2017-08-19T17:32:12.623Z,4.30
2017-08-19T17:34:40.087Z,4.53
2017-08-19T17:37:07.561Z,4.43
2017-08-19T17:39:35.030Z,9.07
2017-08-19T17:42:02.526Z,8.33
2017-08-19T17:44:29.992Z,13.37
2017-08-19T17:46:57.469Z,11.00
2017-08-19T17:49:24.922Z,5.90
2017-08-19T17:51:52.390Z,23.17
2017-08-19T17:54:19.859Z,4.17
2017-08-19T17:56:47.322Z,9.47
2017-08-19T17:59:14.788Z,7.13
2017-08-19T18:01:42.251Z,5.97
2017-08-19T18:04:09.728Z,5.37
2017-08-19T18:06:37.198Z,6.00
2017-08-19T18:09:04.659Z,8.70
2017-08-19T18:11:32.134Z,5.73
2017-08-19T18:13:59.583Z,6.43
2017-08-19T18:16:27.061Z,10.67
2017-08-19T18:18:54.536Z,7.67
2017-08-19T18:21:22.011Z,6.77
2017-08-19T18:23:49.476Z,5.90
2017-08-19T18:26:16.950Z,5.83
2017-08-19T18:28:44.403Z,9.30
2017-08-19T18:31:11.879Z,4.80
2017-08-19T18:33:39.345Z,4.10
2017-08-19T18:36:06.808Z,5.07
2017-08-19T18:38:34.282Z,5.23
2017-08-19T18:41:01.731Z,6.40
2017-08-19T18:43:29.201Z,9.20
2017-08-19T18:45:56.656Z,12.03
2017-08-19T18:48:24.127Z,4.97
2017-08-19T18:50:51.612Z,6.53
2017-08-19T18:53:19.080Z,5.30
2017-08-19T18:55:46.546Z,5.80
2017-08-19T18:58:14.025Z,7.73
2017-08-19T19:00:41.479Z,4.40
2017-08-19T19:03:08.954Z,5.77
2017-08-19T19:05:36.456Z,3.40
2017-08-19T19:08:03.927Z,4.90
2017-08-19T19:10:31.394Z,5.80
2017-08-19T19:12:58.871Z,4.40
2017-08-19T19:15:26.330Z,4.90
2017-08-19T19:17:53.800Z,3.90
2017-08-19T19:20:21.266Z,4.63
2017-08-19T19:22:48.739Z,3.73
2017-08-19T19:25:16.207Z,4.57
2017-08-19T19:27:43.684Z,3.10
2017-08-19T19:30:11.143Z,3.20
2017-08-19T19:32:38.619Z,2.23
2017-08-19T19:35:06.083Z,3.17
2017-08-19T19:37:33.551Z,2.50
2017-08-19T19:40:03.082Z,10.00
2017-08-19T19:42:30.558Z,2.60
2017-08-19T19:44:58.338Z,2.57
2017-08-19T19:47:25.826Z,3.10
2017-08-19T19:49:53.275Z,3.50
2017-08-19T19:52:20.752Z,3.23
2017-08-19T19:54:48.222Z,4.05
2017-08-19T19:57:15.689Z,2.30
2017-08-19T19:59:43.161Z,2.57
2017-08-19T20:02:10.611Z,5.33
2017-08-19T20:04:38.084Z,2.77
2017-08-19T20:07:05.549Z,2.67
2017-08-19T20:09:33.008Z,5.23
2017-08-19T20:12:00.480Z,3.27
2017-08-19T20:14:27.949Z,4.40
2017-08-19T20:16:55.408Z,2.93
2017-08-19T20:19:22.873Z,3.70
2017-08-19T20:21:50.335Z,5.03
2017-08-19T20:24:17.820Z,3.47
2017-08-19T20:26:45.292Z,3.10
2017-08-19T20:29:12.769Z,3.40
2017-08-19T20:31:40.232Z,5.70
2017-08-19T20:34:07.708Z,5.30
2017-08-19T20:36:35.169Z,3.13
2017-08-19T20:39:02.638Z,2.90
2017-08-19T20:41:30.087Z,4.20
2017-08-19T20:43:57.573Z,5.53
2017-08-19T20:46:25.027Z,6.00
2017-08-19T20:48:52.509Z,4.03
2017-08-19T20:51:19.991Z,4.53
2017-08-19T20:53:47.476Z,9.40
2017-08-19T20:56:14.934Z,3.13
2017-08-19T20:58:42.401Z,4.43
2017-08-19T21:01:09.877Z,3.40
2017-08-19T21:03:37.339Z,5.53
2017-08-19T21:06:04.812Z,4.93
2017-08-19T21:08:32.288Z,4.53
2017-08-19T21:10:59.767Z,3.70
2017-08-19T21:13:27.235Z,7.20
2017-08-19T21:15:54.712Z,4.37
2017-08-19T21:18:22.183Z,3.70
2017-08-19T21:20:49.652Z,3.13
2017-08-19T21:23:17.111Z,5.23
2017-08-19T21:25:44.587Z,3.50
2017-08-19T21:28:12.047Z,3.20
2017-08-19T21:30:39.522Z,3.70
2017-08-19T21:33:06.979Z,8.03
2017-08-19T21:35:34.454Z,3.57
2017-08-19T21:38:01.920Z,3.20
2017-08-19T21:40:29.387Z,2.70
2017-08-19T21:42:56.864Z,5.47
2017-08-19T21:45:24.324Z,4.00
2017-08-19T21:47:51.795Z,3.40
2017-08-19T21:50:19.251Z,4.43
2017-08-19T21:52:46.724Z,4.90
2017-08-19T21:55:14.183Z,3.63
2017-08-19T21:57:41.650Z,2.80
2017-08-19T22:00:09.103Z,4.23
2017-08-19T22:02:37.380Z,3.40
2017-08-19T22:05:04.846Z,5.37
2017-08-19T22:07:32.316Z,3.60
2017-08-19T22:09:59.784Z,2.90
2017-08-19T22:12:27.432Z,6.03
2017-08-19T22:14:54.891Z,2.90
2017-08-19T22:17:22.369Z,3.60
2017-08-19T22:19:49.879Z,5.53
2017-08-19T22:22:17.333Z,4.93
2017-08-19T22:24:44.803Z,3.37
2017-08-19T22:27:12.258Z,5.53
2017-08-19T22:29:39.724Z,3.17
2017-08-19T22:32:07.203Z,4.40
2017-08-19T22:34:34.675Z,3.93
2017-08-19T22:37:02.158Z,3.73
2017-08-19T22:39:29.631Z,4.17
2017-08-19T22:41:57.096Z,3.60
2017-08-19T22:44:24.563Z,5.10
2017-08-19T22:46:52.030Z,4.20
2017-08-19T22:49:19.500Z,5.30
2017-08-19T22:51:46.967Z,8.07
2017-08-19T22:54:14.435Z,4.20
2017-08-19T22:56:41.895Z,3.90
2017-08-19T22:59:09.363Z,4.53
2017-08-19T23:01:37.352Z,8.97
2017-08-19T23:04:04.820Z,4.90
2017-08-19T23:06:32.276Z,5.40
2017-08-19T23:08:59.748Z,6.50
2017-08-19T23:11:27.215Z,5.33
2017-08-19T23:13:54.682Z,5.10
2017-08-19T23:16:22.160Z,14.43
2017-08-19T23:18:49.623Z,5.83
2017-08-19T23:21:17.097Z,4.90
2017-08-19T23:23:44.559Z,5.53
2017-08-19T23:26:12.032Z,5.13
2017-08-19T23:28:39.487Z,5.33
2017-08-19T23:31:06.958Z,4.83
2017-08-19T23:33:34.419Z,9.70
2017-08-19T23:36:01.919Z,7.13
2017-08-19T23:38:29.388Z,4.80
2017-08-19T23:40:56.856Z,5.40
2017-08-19T23:43:24.327Z,6.33
2017-08-19T23:45:51.795Z,4.77
2017-08-19T23:48:19.247Z,4.63
2017-08-19T23:50:46.720Z,4.37
2017-08-19T23:53:14.184Z,4.20
2017-08-19T23:55:41.652Z,8.10
2017-08-19T23:58:09.106Z,7.57
